sensor_id;sensor_type;location;lat;lon;timestamp;P1;durP1;ratioP1;P2;durP2;ratioP2
9974;SDS011;5028;50.974;4.968;2023-08-24T00:01:10;5.93;;;3.77;;
9974;SDS011;5028;50.974;4.968;2023-08-24T00:03:43;6.20;;;3.87;;
9974;SDS011;5028;50.974;4.968;2023-08-24T00:06:12;5.53;;;4.03;;
9974;SDS011;5028;50.974;4.968;2023-08-24T00:08:42;5.37;;;3.90;;
9974;SDS011;5028;50.974;4.968;2023-08-24T00:11:11;5.10;;;4.10;;
9974;SDS011;5028;50.974;4.968;2023-08-24T00:13:41;5.80;;;3.90;;
9974;SDS011;5028;50.974;4.968;2023-08-24T00:16:15;5.63;;;4.00;;
9974;SDS011;5028;50.974;4.968;2023-08-24T00:18:46;7.80;;;3.87;;
9974;SDS011;5028;50.974;4.968;2023-08-24T00:21:17;7.20;;;3.67;;
9974;SDS011;5028;50.974;4.968;2023-08-24T00:23:49;4.90;;;4.20;;
9974;SDS011;5028;50.974;4.968;2023-08-24T00:26:19;7.00;;;4.07;;
9974;SDS011;5028;50.974;4.968;2023-08-24T00:28:48;4.93;;;4.20;;
9974;SDS011;5028;50.974;4.968;2023-08-24T00:31:17;6.13;;;4.10;;
9974;SDS011;5028;50.974;4.968;2023-08-24T00:33:49;5.70;;;4.47;;
9974;SDS011;5028;50.974;4.968;2023-08-24T00:36:18;5.93;;;4.23;;
9974;SDS011;5028;50.974;4.968;2023-08-24T00:38:48;9.10;;;4.30;;
9974;SDS011;5028;50.974;4.968;2023-08-24T00:41:18;4.50;;;4.10;;
9974;SDS011;5028;50.974;4.968;2023-08-24T00:43:48;6.00;;;4.67;;
9974;SDS011;5028;50.974;4.968;2023-08-24T00:46:17;5.03;;;4.50;;
9974;SDS011;5028;50.974;4.968;2023-08-24T00:48:48;7.50;;;5.00;;
9974;SDS011;5028;50.974;4.968;2023-08-24T00:51:18;6.30;;;5.17;;
9974;SDS011;5028;50.974;4.968;2023-08-24T00:53:47;6.97;;;4.80;;
9974;SDS011;5028;50.974;4.968;2023-08-24T00:56:16;5.77;;;4.90;;
9974;SDS011;5028;50.974;4.968;2023-08-24T00:58:46;7.43;;;4.90;;
9974;SDS011;5028;50.974;4.968;2023-08-24T01:01:17;5.77;;;5.10;;
9974;SDS011;5028;50.974;4.968;2023-08-24T01:03:48;8.23;;;5.17;;
9974;SDS011;5028;50.974;4.968;2023-08-24T01:06:17;6.90;;;5.20;;
9974;SDS011;5028;50.974;4.968;2023-08-24T01:08:45;7.63;;;5.10;;
9974;SDS011;5028;50.974;4.968;2023-08-24T01:11:17;6.73;;;5.47;;
9974;SDS011;5028;50.974;4.968;2023-08-24T01:13:54;9.53;;;5.30;;
9974;SDS011;5028;50.974;4.968;2023-08-24T01:16:29;7.17;;;5.57;;
9974;SDS011;5028;50.974;4.968;2023-08-24T01:19:04;8.00;;;5.30;;
9974;SDS011;5028;50.974;4.968;2023-08-24T01:21:38;6.33;;;5.30;;
9974;SDS011;5028;50.974;4.968;2023-08-24T01:24:09;6.70;;;5.63;;
9974;SDS011;5028;50.974;4.968;2023-08-24T01:26:43;8.33;;;5.10;;
9974;SDS011;5028;50.974;4.968;2023-08-24T01:29:15;7.40;;;5.90;;
9974;SDS011;5028;50.974;4.968;2023-08-24T01:31:44;7.80;;;5.40;;
9974;SDS011;5028;50.974;4.968;2023-08-24T01:34:16;9.80;;;5.90;;
9974;SDS011;5028;50.974;4.968;2023-08-24T01:36:45;7.50;;;5.87;;
9974;SDS011;5028;50.974;4.968;2023-08-24T01:39:18;6.97;;;5.57;;
9974;SDS011;5028;50.974;4.968;2023-08-24T01:41:55;7.93;;;5.70;;
9974;SDS011;5028;50.974;4.968;2023-08-24T01:44:30;7.77;;;5.73;;
9974;SDS011;5028;50.974;4.968;2023-08-24T01:47:05;8.60;;;5.80;;
9974;SDS011;5028;50.974;4.968;2023-08-24T01:49:38;6.80;;;5.60;;
9974;SDS011;5028;50.974;4.968;2023-08-24T01:52:08;6.77;;;5.33;;
9974;SDS011;5028;50.974;4.968;2023-08-24T01:54:39;6.00;;;5.33;;
9974;SDS011;5028;50.974;4.968;2023-08-24T01:57:09;5.97;;;5.37;;
9974;SDS011;5028;50.974;4.968;2023-08-24T01:59:39;6.30;;;5.70;;
9974;SDS011;5028;50.974;4.968;2023-08-24T02:02:07;6.33;;;5.33;;
9974;SDS011;5028;50.974;4.968;2023-08-24T02:04:36;7.20;;;5.77;;
9974;SDS011;5028;50.974;4.968;2023-08-24T02:07:05;8.33;;;5.93;;
9974;SDS011;5028;50.974;4.968;2023-08-24T02:09:34;6.30;;;5.70;;
9974;SDS011;5028;50.974;4.968;2023-08-24T02:12:03;8.50;;;5.73;;
9974;SDS011;5028;50.974;4.968;2023-08-24T02:14:34;7.00;;;6.30;;
9974;SDS011;5028;50.974;4.968;2023-08-24T02:17:03;7.17;;;6.23;;
9974;SDS011;5028;50.974;4.968;2023-08-24T02:19:32;7.10;;;5.40;;
9974;SDS011;5028;50.974;4.968;2023-08-24T02:22:01;6.03;;;5.50;;
9974;SDS011;5028;50.974;4.968;2023-08-24T02:24:30;7.70;;;5.47;;
9974;SDS011;5028;50.974;4.968;2023-08-24T02:26:58;5.93;;;5.33;;
9974;SDS011;5028;50.974;4.968;2023-08-24T02:29:27;6.10;;;5.40;;
9974;SDS011;5028;50.974;4.968;2023-08-24T02:31:58;7.73;;;5.63;;
9974;SDS011;5028;50.974;4.968;2023-08-24T02:34:27;6.80;;;5.67;;
9974;SDS011;5028;50.974;4.968;2023-08-24T02:36:56;8.63;;;5.97;;
9974;SDS011;5028;50.974;4.968;2023-08-24T02:39:25;8.80;;;6.53;;
9974;SDS011;5028;50.974;4.968;2023-08-24T02:41:53;8.83;;;6.13;;
9974;SDS011;5028;50.974;4.968;2023-08-24T02:44:22;7.83;;;6.97;;
9974;SDS011;5028;50.974;4.968;2023-08-24T02:46:51;7.57;;;6.33;;
9974;SDS011;5028;50.974;4.968;2023-08-24T02:49:21;8.50;;;6.47;;
9974;SDS011;5028;50.974;4.968;2023-08-24T02:51:49;7.20;;;6.33;;
9974;SDS011;5028;50.974;4.968;2023-08-24T02:54:18;8.60;;;6.73;;
9974;SDS011;5028;50.974;4.968;2023-08-24T02:56:47;7.57;;;6.77;;
9974;SDS011;5028;50.974;4.968;2023-08-24T02:59:15;9.47;;;6.43;;
9974;SDS011;5028;50.974;4.968;2023-08-24T03:01:44;8.07;;;6.53;;
9974;SDS011;5028;50.974;4.968;2023-08-24T03:04:15;7.80;;;6.70;;
9974;SDS011;5028;50.974;4.968;2023-08-24T03:06:48;7.40;;;6.07;;
9974;SDS011;5028;50.974;4.968;2023-08-24T03:09:16;7.47;;;6.70;;
9974;SDS011;5028;50.974;4.968;2023-08-24T03:11:46;8.43;;;6.40;;
9974;SDS011;5028;50.974;4.968;2023-08-24T03:14:14;7.60;;;6.80;;
9974;SDS011;5028;50.974;4.968;2023-08-24T03:16:45;9.77;;;6.40;;
9974;SDS011;5028;50.974;4.968;2023-08-24T03:19:14;7.30;;;6.60;;
9974;SDS011;5028;50.974;4.968;2023-08-24T03:21:44;7.23;;;6.43;;
9974;SDS011;5028;50.974;4.968;2023-08-24T03:24:15;7.87;;;6.53;;
9974;SDS011;5028;50.974;4.968;2023-08-24T03:26:43;10.67;;;6.87;;
9974;SDS011;5028;50.974;4.968;2023-08-24T03:29:12;8.40;;;6.60;;
9974;SDS011;5028;50.974;4.968;2023-08-24T03:31:42;8.13;;;6.90;;
9974;SDS011;5028;50.974;4.968;2023-08-24T03:34:11;8.67;;;6.57;;
9974;SDS011;5028;50.974;4.968;2023-08-24T03:36:40;7.77;;;6.20;;
9974;SDS011;5028;50.974;4.968;2023-08-24T03:39:09;7.53;;;6.80;;
9974;SDS011;5028;50.974;4.968;2023-08-24T03:41:39;7.70;;;6.90;;
9974;SDS011;5028;50.974;4.968;2023-08-24T03:44:08;8.53;;;7.20;;
9974;SDS011;5028;50.974;4.968;2023-08-24T03:46:37;8.50;;;7.10;;
9974;SDS011;5028;50.974;4.968;2023-08-24T03:49:06;7.67;;;6.97;;
9974;SDS011;5028;50.974;4.968;2023-08-24T03:51:35;10.87;;;7.43;;
9974;SDS011;5028;50.974;4.968;2023-08-24T03:54:04;7.17;;;6.47;;
9974;SDS011;5028;50.974;4.968;2023-08-24T03:56:32;8.60;;;7.00;;
9974;SDS011;5028;50.974;4.968;2023-08-24T03:59:03;9.20;;;6.93;;
9974;SDS011;5028;50.974;4.968;2023-08-24T04:01:32;8.30;;;7.17;;
9974;SDS011;5028;50.974;4.968;2023-08-24T04:04:00;8.40;;;7.23;;
9974;SDS011;5028;50.974;4.968;2023-08-24T04:06:29;7.70;;;6.90;;
9974;SDS011;5028;50.974;4.968;2023-08-24T04:08:58;7.73;;;6.83;;
9974;SDS011;5028;50.974;4.968;2023-08-24T04:11:27;7.47;;;6.73;;
9974;SDS011;5028;50.974;4.968;2023-08-24T04:13:56;10.20;;;6.83;;
9974;SDS011;5028;50.974;4.968;2023-08-24T04:16:26;7.43;;;6.73;;
9974;SDS011;5028;50.974;4.968;2023-08-24T04:18:55;9.20;;;7.27;;
9974;SDS011;5028;50.974;4.968;2023-08-24T04:21:25;9.90;;;7.47;;
9974;SDS011;5028;50.974;4.968;2023-08-24T04:23:54;7.50;;;6.80;;
9974;SDS011;5028;50.974;4.968;2023-08-24T04:26:22;9.10;;;7.23;;
9974;SDS011;5028;50.974;4.968;2023-08-24T04:28:52;7.80;;;7.00;;
9974;SDS011;5028;50.974;4.968;2023-08-24T04:31:21;8.30;;;6.63;;
9974;SDS011;5028;50.974;4.968;2023-08-24T04:33:51;9.97;;;6.60;;
9974;SDS011;5028;50.974;4.968;2023-08-24T04:36:20;7.77;;;6.67;;
9974;SDS011;5028;50.974;4.968;2023-08-24T04:38:49;11.07;;;7.03;;
9974;SDS011;5028;50.974;4.968;2023-08-24T04:41:17;11.40;;;7.03;;
9974;SDS011;5028;50.974;4.968;2023-08-24T04:43:46;8.73;;;6.33;;
9974;SDS011;5028;50.974;4.968;2023-08-24T04:46:15;9.13;;;7.23;;
9974;SDS011;5028;50.974;4.968;2023-08-24T04:48:44;7.27;;;6.50;;
9974;SDS011;5028;50.974;4.968;2023-08-24T04:51:14;9.67;;;6.90;;
9974;SDS011;5028;50.974;4.968;2023-08-24T04:53:43;8.43;;;6.60;;
9974;SDS011;5028;50.974;4.968;2023-08-24T04:56:12;7.10;;;6.40;;
9974;SDS011;5028;50.974;4.968;2023-08-24T04:58:51;7.20;;;6.47;;
9974;SDS011;5028;50.974;4.968;2023-08-24T05:01:20;9.60;;;6.83;;
9974;SDS011;5028;50.974;4.968;2023-08-24T05:03:49;7.60;;;6.10;;
9974;SDS011;5028;50.974;4.968;2023-08-24T05:06:19;7.67;;;6.93;;
9974;SDS011;5028;50.974;4.968;2023-08-24T05:08:48;7.90;;;6.80;;
9974;SDS011;5028;50.974;4.968;2023-08-24T05:11:17;7.13;;;6.43;;
9974;SDS011;5028;50.974;4.968;2023-08-24T05:13:47;8.43;;;6.70;;
9974;SDS011;5028;50.974;4.968;2023-08-24T05:16:16;9.83;;;6.83;;
9974;SDS011;5028;50.974;4.968;2023-08-24T05:18:45;8.27;;;6.50;;
9974;SDS011;5028;50.974;4.968;2023-08-24T05:21:14;8.30;;;6.87;;
9974;SDS011;5028;50.974;4.968;2023-08-24T05:23:44;8.07;;;7.03;;
9974;SDS011;5028;50.974;4.968;2023-08-24T05:26:15;7.67;;;6.60;;
9974;SDS011;5028;50.974;4.968;2023-08-24T05:28:49;9.37;;;6.67;;
9974;SDS011;5028;50.974;4.968;2023-08-24T05:31:17;10.17;;;6.77;;
9974;SDS011;5028;50.974;4.968;2023-08-24T05:33:47;9.53;;;6.83;;
9974;SDS011;5028;50.974;4.968;2023-08-24T05:36:16;11.53;;;6.90;;
9974;SDS011;5028;50.974;4.968;2023-08-24T05:38:48;8.70;;;6.87;;
9974;SDS011;5028;50.974;4.968;2023-08-24T05:41:31;8.57;;;6.73;;
9974;SDS011;5028;50.974;4.968;2023-08-24T05:44:01;7.10;;;6.40;;
9974;SDS011;5028;50.974;4.968;2023-08-24T05:46:31;8.83;;;6.60;;
9974;SDS011;5028;50.974;4.968;2023-08-24T05:49:00;8.43;;;6.37;;
9974;SDS011;5028;50.974;4.968;2023-08-24T05:51:29;9.23;;;7.07;;
9974;SDS011;5028;50.974;4.968;2023-08-24T05:53:59;7.63;;;6.30;;
9974;SDS011;5028;50.974;4.968;2023-08-24T05:56:28;9.33;;;6.27;;
9974;SDS011;5028;50.974;4.968;2023-08-24T05:58:57;8.00;;;6.50;;
9974;SDS011;5028;50.974;4.968;2023-08-24T06:01:28;9.07;;;6.20;;
9974;SDS011;5028;50.974;4.968;2023-08-24T06:03:56;8.63;;;6.30;;
9974;SDS011;5028;50.974;4.968;2023-08-24T06:06:25;12.53;;;6.40;;
9974;SDS011;5028;50.974;4.968;2023-08-24T06:08:54;8.90;;;6.23;;
9974;SDS011;5028;50.974;4.968;2023-08-24T06:11:24;6.97;;;6.27;;
9974;SDS011;5028;50.974;4.968;2023-08-24T06:13:53;9.90;;;6.20;;
9974;SDS011;5028;50.974;4.968;2023-08-24T06:16:21;7.90;;;6.37;;
9974;SDS011;5028;50.974;4.968;2023-08-24T06:18:50;8.47;;;5.97;;
9974;SDS011;5028;50.974;4.968;2023-08-24T06:21:19;10.67;;;5.87;;
9974;SDS011;5028;50.974;4.968;2023-08-24T06:23:48;8.97;;;5.90;;
9974;SDS011;5028;50.974;4.968;2023-08-24T06:26:17;6.93;;;5.50;;
9974;SDS011;5028;50.974;4.968;2023-08-24T06:28:50;7.80;;;5.90;;
9974;SDS011;5028;50.974;4.968;2023-08-24T06:31:20;7.23;;;5.87;;
9974;SDS011;5028;50.974;4.968;2023-08-24T06:33:49;7.37;;;5.57;;
9974;SDS011;5028;50.974;4.968;2023-08-24T06:36:17;6.83;;;5.77;;
9974;SDS011;5028;50.974;4.968;2023-08-24T06:38:46;7.60;;;5.70;;
9974;SDS011;5028;50.974;4.968;2023-08-24T06:41:14;9.03;;;5.90;;
9974;SDS011;5028;50.974;4.968;2023-08-24T06:43:44;8.33;;;6.27;;
9974;SDS011;5028;50.974;4.968;2023-08-24T06:46:15;7.70;;;5.70;;
9974;SDS011;5028;50.974;4.968;2023-08-24T06:48:43;7.47;;;5.87;;
9974;SDS011;5028;50.974;4.968;2023-08-24T06:51:12;9.50;;;5.83;;
9974;SDS011;5028;50.974;4.968;2023-08-24T06:53:41;6.53;;;5.57;;
9974;SDS011;5028;50.974;4.968;2023-08-24T06:56:10;6.60;;;5.53;;
9974;SDS011;5028;50.974;4.968;2023-08-24T06:58:39;8.07;;;5.40;;
9974;SDS011;5028;50.974;4.968;2023-08-24T07:01:09;6.37;;;5.57;;
9974;SDS011;5028;50.974;4.968;2023-08-24T07:03:39;6.63;;;5.30;;
9974;SDS011;5028;50.974;4.968;2023-08-24T07:06:08;8.43;;;5.80;;
9974;SDS011;5028;50.974;4.968;2023-08-24T07:08:38;7.83;;;5.63;;
9974;SDS011;5028;50.974;4.968;2023-08-24T07:11:07;8.53;;;5.80;;
9974;SDS011;5028;50.974;4.968;2023-08-24T07:13:36;8.33;;;5.63;;
9974;SDS011;5028;50.974;4.968;2023-08-24T07:16:05;7.67;;;5.47;;
9974;SDS011;5028;50.974;4.968;2023-08-24T07:18:34;8.57;;;5.57;;
9974;SDS011;5028;50.974;4.968;2023-08-24T07:21:04;5.60;;;5.00;;
9974;SDS011;5028;50.974;4.968;2023-08-24T07:23:33;6.77;;;4.87;;
9974;SDS011;5028;50.974;4.968;2023-08-24T07:26:02;5.63;;;4.97;;
9974;SDS011;5028;50.974;4.968;2023-08-24T07:28:32;6.07;;;4.80;;
9974;SDS011;5028;50.974;4.968;2023-08-24T07:31:06;9.83;;;4.80;;
9974;SDS011;5028;50.974;4.968;2023-08-24T07:33:37;5.63;;;4.07;;
9974;SDS011;5028;50.974;4.968;2023-08-24T07:36:11;5.90;;;3.97;;
9974;SDS011;5028;50.974;4.968;2023-08-24T07:38:40;5.87;;;4.17;;
9974;SDS011;5028;50.974;4.968;2023-08-24T07:41:22;4.73;;;3.50;;
9974;SDS011;5028;50.974;4.968;2023-08-24T07:43:51;4.77;;;3.50;;
9974;SDS011;5028;50.974;4.968;2023-08-24T07:46:20;4.83;;;3.80;;
9974;SDS011;5028;50.974;4.968;2023-08-24T07:48:49;6.97;;;3.87;;
9974;SDS011;5028;50.974;4.968;2023-08-24T07:51:22;4.37;;;3.33;;
9974;SDS011;5028;50.974;4.968;2023-08-24T07:53:51;5.90;;;3.30;;
9974;SDS011;5028;50.974;4.968;2023-08-24T07:56:19;5.33;;;3.40;;
9974;SDS011;5028;50.974;4.968;2023-08-24T07:58:49;5.23;;;3.10;;
9974;SDS011;5028;50.974;4.968;2023-08-24T08:01:18;5.20;;;3.30;;
9974;SDS011;5028;50.974;4.968;2023-08-24T08:03:46;6.43;;;3.50;;
9974;SDS011;5028;50.974;4.968;2023-08-24T08:06:15;4.27;;;3.30;;
9974;SDS011;5028;50.974;4.968;2023-08-24T08:08:45;7.07;;;3.47;;
9974;SDS011;5028;50.974;4.968;2023-08-24T08:11:14;3.63;;;3.10;;
9974;SDS011;5028;50.974;4.968;2023-08-24T08:13:45;4.10;;;3.07;;
9974;SDS011;5028;50.974;4.968;2023-08-24T08:16:15;3.97;;;3.20;;
9974;SDS011;5028;50.974;4.968;2023-08-24T08:18:44;4.30;;;3.30;;
9974;SDS011;5028;50.974;4.968;2023-08-24T08:21:14;7.53;;;3.30;;
9974;SDS011;5028;50.974;4.968;2023-08-24T08:23:52;5.57;;;3.17;;
9974;SDS011;5028;50.974;4.968;2023-08-24T08:26:20;4.23;;;3.30;;
9974;SDS011;5028;50.974;4.968;2023-08-24T08:28:49;5.00;;;3.00;;
9974;SDS011;5028;50.974;4.968;2023-08-24T08:31:18;3.77;;;2.90;;
9974;SDS011;5028;50.974;4.968;2023-08-24T08:33:47;5.03;;;2.97;;
9974;SDS011;5028;50.974;4.968;2023-08-24T08:36:17;5.00;;;3.03;;
9974;SDS011;5028;50.974;4.968;2023-08-24T08:38:45;5.93;;;3.20;;
9974;SDS011;5028;50.974;4.968;2023-08-24T08:41:41;3.80;;;2.70;;
9974;SDS011;5028;50.974;4.968;2023-08-24T08:44:14;5.10;;;3.50;;
9974;SDS011;5028;50.974;4.968;2023-08-24T08:46:45;3.50;;;3.00;;
9974;SDS011;5028;50.974;4.968;2023-08-24T08:49:19;4.17;;;3.03;;
9974;SDS011;5028;50.974;4.968;2023-08-24T08:51:48;6.40;;;3.27;;
9974;SDS011;5028;50.974;4.968;2023-08-24T08:54:18;5.93;;;3.13;;
9974;SDS011;5028;50.974;4.968;2023-08-24T08:56:48;6.93;;;3.03;;
9974;SDS011;5028;50.974;4.968;2023-08-24T08:59:18;3.23;;;2.73;;
9974;SDS011;5028;50.974;4.968;2023-08-24T09:01:51;7.10;;;3.30;;
9974;SDS011;5028;50.974;4.968;2023-08-24T09:04:20;4.88;;;3.03;;
9974;SDS011;5028;50.974;4.968;2023-08-24T09:06:50;5.85;;;3.28;;
9974;SDS011;5028;50.974;4.968;2023-08-24T09:09:19;4.13;;;2.90;;
9974;SDS011;5028;50.974;4.968;2023-08-24T09:11:50;5.43;;;2.93;;
9974;SDS011;5028;50.974;4.968;2023-08-24T09:14:19;5.43;;;3.25;;
9974;SDS011;5028;50.974;4.968;2023-08-24T09:16:49;6.88;;;2.92;;
9974;SDS011;5028;50.974;4.968;2023-08-24T09:19:19;4.85;;;3.38;;
9974;SDS011;5028;50.974;4.968;2023-08-24T09:21:57;6.93;;;3.20;;
9974;SDS011;5028;50.974;4.968;2023-08-24T09:24:29;5.40;;;3.55;;
9974;SDS011;5028;50.974;4.968;2023-08-24T09:27:00;4.63;;;2.83;;
9974;SDS011;5028;50.974;4.968;2023-08-24T09:29:43;4.35;;;2.90;;
9974;SDS011;5028;50.974;4.968;2023-08-24T09:32:21;6.28;;;3.10;;
9974;SDS011;5028;50.974;4.968;2023-08-24T09:34:50;3.28;;;2.90;;
9974;SDS011;5028;50.974;4.968;2023-08-24T09:37:19;7.15;;;3.10;;
9974;SDS011;5028;50.974;4.968;2023-08-24T09:39:48;4.75;;;2.88;;
9974;SDS011;5028;50.974;4.968;2023-08-24T09:42:20;4.28;;;3.10;;
9974;SDS011;5028;50.974;4.968;2023-08-24T09:45:02;6.50;;;3.30;;
9974;SDS011;5028;50.974;4.968;2023-08-24T09:47:31;4.65;;;3.50;;
9974;SDS011;5028;50.974;4.968;2023-08-24T09:50:01;5.47;;;3.30;;
9974;SDS011;5028;50.974;4.968;2023-08-24T09:52:31;6.78;;;3.65;;
9974;SDS011;5028;50.974;4.968;2023-08-24T09:55:02;4.70;;;3.70;;
9974;SDS011;5028;50.974;4.968;2023-08-24T09:57:36;6.53;;;3.60;;
9974;SDS011;5028;50.974;4.968;2023-08-24T10:00:07;6.68;;;3.78;;
9974;SDS011;5028;50.974;4.968;2023-08-24T10:02:46;6.82;;;4.05;;
9974;SDS011;5028;50.974;4.968;2023-08-24T10:05:19;6.43;;;3.50;;
9974;SDS011;5028;50.974;4.968;2023-08-24T10:07:52;7.53;;;3.83;;
9974;SDS011;5028;50.974;4.968;2023-08-24T10:10:23;6.53;;;3.77;;
9974;SDS011;5028;50.974;4.968;2023-08-24T10:12:57;5.00;;;3.57;;
9974;SDS011;5028;50.974;4.968;2023-08-24T10:15:31;5.30;;;3.10;;
9974;SDS011;5028;50.974;4.968;2023-08-24T10:18:02;6.20;;;2.80;;
9974;SDS011;5028;50.974;4.968;2023-08-24T10:20:31;4.60;;;2.80;;
9974;SDS011;5028;50.974;4.968;2023-08-24T10:23:01;6.53;;;3.27;;
9974;SDS011;5028;50.974;4.968;2023-08-24T10:25:31;3.70;;;2.80;;
9974;SDS011;5028;50.974;4.968;2023-08-24T10:28:02;5.83;;;3.03;;
9974;SDS011;5028;50.974;4.968;2023-08-24T10:30:33;5.43;;;3.10;;
9974;SDS011;5028;50.974;4.968;2023-08-24T10:33:04;6.13;;;3.07;;
9974;SDS011;5028;50.974;4.968;2023-08-24T10:35:34;5.50;;;3.20;;
9974;SDS011;5028;50.974;4.968;2023-08-24T10:38:03;7.63;;;3.70;;
9974;SDS011;5028;50.974;4.968;2023-08-24T10:40:34;5.60;;;3.30;;
9974;SDS011;5028;50.974;4.968;2023-08-24T10:43:07;8.43;;;3.73;;
9974;SDS011;5028;50.974;4.968;2023-08-24T10:48:23;8.90;;;3.30;;
9974;SDS011;5028;50.974;4.968;2023-08-24T10:53:51;8.33;;;3.73;;
9974;SDS011;5028;50.974;4.968;2023-08-24T10:56:20;7.10;;;4.10;;
9974;SDS011;5028;50.974;4.968;2023-08-24T10:59:09;7.00;;;3.80;;
9974;SDS011;5028;50.974;4.968;2023-08-24T11:01:39;7.47;;;3.70;;
9974;SDS011;5028;50.974;4.968;2023-08-24T11:04:10;4.60;;;3.53;;
9974;SDS011;5028;50.974;4.968;2023-08-24T11:06:52;5.30;;;3.60;;
9974;SDS011;5028;50.974;4.968;2023-08-24T11:09:22;7.50;;;3.90;;
9974;SDS011;5028;50.974;4.968;2023-08-24T11:11:55;6.23;;;3.57;;
9974;SDS011;5028;50.974;4.968;2023-08-24T11:14:27;10.23;;;3.87;;
9974;SDS011;5028;50.974;4.968;2023-08-24T11:16:58;4.63;;;3.67;;
9974;SDS011;5028;50.974;4.968;2023-08-24T11:19:28;5.40;;;4.00;;
9974;SDS011;5028;50.974;4.968;2023-08-24T11:21:58;4.83;;;4.03;;
9974;SDS011;5028;50.974;4.968;2023-08-24T11:24:27;5.63;;;3.93;;
9974;SDS011;5028;50.974;4.968;2023-08-24T11:26:56;4.80;;;3.63;;
9974;SDS011;5028;50.974;4.968;2023-08-24T11:29:30;5.80;;;3.80;;
9974;SDS011;5028;50.974;4.968;2023-08-24T11:31:59;5.80;;;3.50;;
9974;SDS011;5028;50.974;4.968;2023-08-24T11:34:29;5.27;;;3.80;;
9974;SDS011;5028;50.974;4.968;2023-08-24T11:36:58;4.40;;;3.30;;
9974;SDS011;5028;50.974;4.968;2023-08-24T11:39:27;6.80;;;4.00;;
9974;SDS011;5028;50.974;4.968;2023-08-24T11:41:59;5.10;;;4.20;;
9974;SDS011;5028;50.974;4.968;2023-08-24T11:44:43;4.63;;;3.50;;
9974;SDS011;5028;50.974;4.968;2023-08-24T11:47:13;6.83;;;4.40;;
9974;SDS011;5028;50.974;4.968;2023-08-24T11:49:43;5.20;;;4.10;;
9974;SDS011;5028;50.974;4.968;2023-08-24T11:52:12;4.93;;;3.53;;
9974;SDS011;5028;50.974;4.968;2023-08-24T11:54:42;6.63;;;3.47;;
9974;SDS011;5028;50.974;4.968;2023-08-24T11:57:12;4.93;;;3.60;;
9974;SDS011;5028;50.974;4.968;2023-08-24T11:59:42;4.83;;;3.40;;
9974;SDS011;5028;50.974;4.968;2023-08-24T12:02:12;4.20;;;3.40;;
9974;SDS011;5028;50.974;4.968;2023-08-24T12:04:44;4.97;;;3.43;;
9974;SDS011;5028;50.974;4.968;2023-08-24T12:07:16;5.17;;;3.40;;
9974;SDS011;5028;50.974;4.968;2023-08-24T12:09:44;5.30;;;3.80;;
9974;SDS011;5028;50.974;4.968;2023-08-24T12:12:14;6.40;;;3.90;;
9974;SDS011;5028;50.974;4.968;2023-08-24T12:14:45;4.37;;;3.93;;
9974;SDS011;5028;50.974;4.968;2023-08-24T12:17:16;6.10;;;4.10;;
9974;SDS011;5028;50.974;4.968;2023-08-24T12:19:56;6.80;;;4.20;;
9974;SDS011;5028;50.974;4.968;2023-08-24T12:22:25;5.03;;;3.93;;
9974;SDS011;5028;50.974;4.968;2023-08-24T12:24:54;6.67;;;3.80;;
9974;SDS011;5028;50.974;4.968;2023-08-24T12:27:23;5.87;;;4.00;;
9974;SDS011;5028;50.974;4.968;2023-08-24T12:29:59;4.70;;;3.97;;
9974;SDS011;5028;50.974;4.968;2023-08-24T12:32:41;4.30;;;3.90;;
9974;SDS011;5028;50.974;4.968;2023-08-24T12:35:11;5.17;;;3.93;;
9974;SDS011;5028;50.974;4.968;2023-08-24T12:37:41;4.90;;;4.07;;
9974;SDS011;5028;50.974;4.968;2023-08-24T12:40:10;6.93;;;4.57;;
9974;SDS011;5028;50.974;4.968;2023-08-24T12:42:39;5.67;;;4.40;;
9974;SDS011;5028;50.974;4.968;2023-08-24T12:45:10;5.57;;;4.40;;
9974;SDS011;5028;50.974;4.968;2023-08-24T12:47:39;5.97;;;4.20;;
9974;SDS011;5028;50.974;4.968;2023-08-24T12:50:08;4.77;;;4.30;;
9974;SDS011;5028;50.974;4.968;2023-08-24T12:52:36;6.70;;;4.43;;
9974;SDS011;5028;50.974;4.968;2023-08-24T12:55:05;5.07;;;4.00;;
9974;SDS011;5028;50.974;4.968;2023-08-24T12:57:34;6.80;;;3.83;;
9974;SDS011;5028;50.974;4.968;2023-08-24T13:00:03;6.83;;;3.83;;
9974;SDS011;5028;50.974;4.968;2023-08-24T13:02:34;6.03;;;3.70;;
9974;SDS011;5028;50.974;4.968;2023-08-24T13:05:05;4.77;;;3.60;;
9974;SDS011;5028;50.974;4.968;2023-08-24T13:07:35;5.17;;;3.43;;
9974;SDS011;5028;50.974;4.968;2023-08-24T13:10:05;5.07;;;3.47;;
9974;SDS011;5028;50.974;4.968;2023-08-24T13:12:34;5.33;;;3.33;;
9974;SDS011;5028;50.974;4.968;2023-08-24T13:15:04;3.73;;;3.17;;
9974;SDS011;5028;50.974;4.968;2023-08-24T13:17:34;5.27;;;3.20;;
9974;SDS011;5028;50.974;4.968;2023-08-24T13:20:03;5.97;;;3.07;;
9974;SDS011;5028;50.974;4.968;2023-08-24T13:22:36;4.10;;;3.30;;
9974;SDS011;5028;50.974;4.968;2023-08-24T13:25:06;3.83;;;2.90;;
9974;SDS011;5028;50.974;4.968;2023-08-24T13:27:35;4.93;;;3.00;;
9974;SDS011;5028;50.974;4.968;2023-08-24T13:30:05;4.00;;;2.37;;
9974;SDS011;5028;50.974;4.968;2023-08-24T13:32:37;4.00;;;2.37;;
9974;SDS011;5028;50.974;4.968;2023-08-24T13:35:06;2.97;;;2.17;;
9974;SDS011;5028;50.974;4.968;2023-08-24T13:37:36;6.47;;;2.50;;
9974;SDS011;5028;50.974;4.968;2023-08-24T13:40:05;4.07;;;2.40;;
9974;SDS011;5028;50.974;4.968;2023-08-24T13:42:35;2.53;;;2.00;;
9974;SDS011;5028;50.974;4.968;2023-08-24T13:45:04;3.07;;;2.13;;
9974;SDS011;5028;50.974;4.968;2023-08-24T13:47:34;2.80;;;1.80;;
9974;SDS011;5028;50.974;4.968;2023-08-24T13:50:05;3.40;;;2.17;;
9974;SDS011;5028;50.974;4.968;2023-08-24T13:52:34;2.60;;;1.90;;
9974;SDS011;5028;50.974;4.968;2023-08-24T13:55:04;3.17;;;1.97;;
9974;SDS011;5028;50.974;4.968;2023-08-24T13:57:43;2.90;;;1.63;;
9974;SDS011;5028;50.974;4.968;2023-08-24T14:00:13;2.40;;;1.70;;
9974;SDS011;5028;50.974;4.968;2023-08-24T14:02:44;3.93;;;1.70;;
9974;SDS011;5028;50.974;4.968;2023-08-24T14:05:15;2.23;;;1.67;;
9974;SDS011;5028;50.974;4.968;2023-08-24T14:07:44;2.27;;;1.50;;
9974;SDS011;5028;50.974;4.968;2023-08-24T14:10:12;3.63;;;1.90;;
9974;SDS011;5028;50.974;4.968;2023-08-24T14:12:41;3.33;;;1.70;;
9974;SDS011;5028;50.974;4.968;2023-08-24T14:15:10;5.10;;;1.87;;
9974;SDS011;5028;50.974;4.968;2023-08-24T14:17:39;3.20;;;1.77;;
9974;SDS011;5028;50.974;4.968;2023-08-24T14:20:11;2.77;;;1.80;;
9974;SDS011;5028;50.974;4.968;2023-08-24T14:22:40;3.07;;;1.63;;
9974;SDS011;5028;50.974;4.968;2023-08-24T14:25:09;3.27;;;1.70;;
9974;SDS011;5028;50.974;4.968;2023-08-24T14:27:38;3.03;;;1.70;;
9974;SDS011;5028;50.974;4.968;2023-08-24T14:30:16;5.17;;;1.80;;
9974;SDS011;5028;50.974;4.968;2023-08-24T14:32:45;2.83;;;1.80;;
9974;SDS011;5028;50.974;4.968;2023-08-24T14:35:15;3.27;;;1.67;;
9974;SDS011;5028;50.974;4.968;2023-08-24T14:37:46;3.63;;;1.60;;
9974;SDS011;5028;50.974;4.968;2023-08-24T14:40:14;2.47;;;1.50;;
9974;SDS011;5028;50.974;4.968;2023-08-24T14:42:46;2.27;;;1.33;;
9974;SDS011;5028;50.974;4.968;2023-08-24T14:45:17;5.47;;;1.77;;
9974;SDS011;5028;50.974;4.968;2023-08-24T14:47:45;1.73;;;1.47;;
9974;SDS011;5028;50.974;4.968;2023-08-24T14:50:16;4.73;;;1.50;;
9974;SDS011;5028;50.974;4.968;2023-08-24T14:52:44;2.83;;;1.37;;
9974;SDS011;5028;50.974;4.968;2023-08-24T14:55:12;2.87;;;1.70;;
9974;SDS011;5028;50.974;4.968;2023-08-24T14:57:41;2.00;;;1.27;;
9974;SDS011;5028;50.974;4.968;2023-08-24T15:00:10;3.83;;;1.40;;
9974;SDS011;5028;50.974;4.968;2023-08-24T15:02:42;4.03;;;1.40;;
9974;SDS011;5028;50.974;4.968;2023-08-24T15:05:11;2.03;;;1.00;;
9974;SDS011;5028;50.974;4.968;2023-08-24T15:07:41;3.13;;;1.40;;
9974;SDS011;5028;50.974;4.968;2023-08-24T15:10:10;2.33;;;1.33;;
9974;SDS011;5028;50.974;4.968;2023-08-24T15:12:38;3.37;;;1.50;;
9974;SDS011;5028;50.974;4.968;2023-08-24T15:15:07;1.90;;;1.20;;
9974;SDS011;5028;50.974;4.968;2023-08-24T15:17:36;1.47;;;1.10;;
9974;SDS011;5028;50.974;4.968;2023-08-24T15:20:06;1.97;;;1.50;;
9974;SDS011;5028;50.974;4.968;2023-08-24T15:22:36;1.73;;;1.30;;
9974;SDS011;5028;50.974;4.968;2023-08-24T15:25:07;4.07;;;1.47;;
9974;SDS011;5028;50.974;4.968;2023-08-24T15:27:36;2.60;;;1.40;;
9974;SDS011;5028;50.974;4.968;2023-08-24T15:30:05;1.63;;;1.27;;
9974;SDS011;5028;50.974;4.968;2023-08-24T15:32:36;2.13;;;1.30;;
9974;SDS011;5028;50.974;4.968;2023-08-24T15:35:05;2.10;;;1.30;;
9974;SDS011;5028;50.974;4.968;2023-08-24T15:37:34;4.17;;;1.37;;
9974;SDS011;5028;50.974;4.968;2023-08-24T15:40:14;2.37;;;1.30;;